Time;durP1;ratioP1;P1;durP2;ratioP2;P2;SDS_P1;SDS_P2;PMS_P1;PMS_P2;Temp;Humidity;BMP_temperature;BMP_pressure;BME280_temperature;BME280_humidity;BME280_pressure;Samples;Min_cycle;Max_cycle;Signal;HPM_P1;HPM_P2
2023/12/18 00:02:30;;;;;;;;;;;;;;;0.25;100.00;97577.75;10591647;27;1988;-69
2023/12/18 00:07:34;;;;;;;;;;;;;;;0.28;100.00;97582.72;10591874;27;2028;-70
2023/12/18 00:12:37;;;;;;;;;;;;;;;0.26;100.00;97579.41;10601751;27;1945;-69
2023/12/18 00:17:48;;;;;;;;;;;;;;;0.27;100.00;97573.13;10599135;27;2083;-68
2023/12/18 00:22:52;;;;;;;;;;;;;;;0.28;100.00;97572.13;10584712;27;2695;-69
2023/12/18 00:27:57;;;;;;;;;;;;;;;0.25;100.00;97569.81;10568857;27;1946;-74
2023/12/18 00:33:06;;;;;;;;;;;;;;;0.24;100.00;97576.91;10607537;27;2189;-68
2023/12/18 00:38:15;;;;;;;;;;;;;;;0.22;100.00;97565.69;10590059;27;1903;-74
2023/12/18 00:43:25;;;;;;;;;;;;;;;0.20;100.00;97564.19;10586794;27;1806;-70
2023/12/18 00:48:31;;;;;;;;;;;;;;;0.20;100.00;97570.31;10581906;27;3232;-68
2023/12/18 00:53:39;;;;;;;;;;;;;;;0.29;100.00;97557.91;10587672;27;1943;-70
2023/12/18 00:58:49;;;;;;;;;;;;;;;0.27;100.00;97559.91;10598116;27;2130;-68
2023/12/18 01:03:55;;;;;;;;;;;;;;;0.24;100.00;97555.75;10621040;27;1883;-68
2023/12/18 01:09:02;;;;;;;;;;;;;;;0.35;100.00;97557.25;10586291;27;1935;-71
2023/12/18 01:14:16;;;;;;;;;;;;;;;0.41;100.00;97563.69;10592302;27;2252;-67
2023/12/18 01:19:23;;;;;;;;;;;;;;;0.46;100.00;97558.75;10598086;27;2039;-71
2023/12/18 01:24:31;;;;;;;;;;;;;;;0.47;100.00;97571.81;10599018;27;1937;-70
2023/12/18 01:29:36;;;;;;;;;;;;;;;0.48;100.00;97569.97;10582851;27;1908;-71
2023/12/18 01:34:49;;;;;;;;;;;;;;;0.41;100.00;97555.75;10601086;27;1961;-68
2023/12/18 01:39:54;;;;;;;;;;;;;;;0.39;100.00;97550.66;10575885;27;1939;-69
2023/12/18 01:44:59;;;;;;;;;;;;;;;0.43;100.00;97546.66;10595461;27;5970;-68
2023/12/18 01:50:02;;;;;;;;;;;;;;;0.39;100.00;97542.72;10606538;27;2081;-71
2023/12/18 01:55:11;;;;;;;;;;;;;;;0.44;100.00;97532.44;10592830;27;1917;-68
2023/12/18 02:00:15;;;;;;;;;;;;;;;0.44;100.00;97524.50;10583108;27;1954;-68
2023/12/18 02:05:23;;;;;;;;;;;;;;;0.48;100.00;97512.59;10580365;27;1926;-68
2023/12/18 02:10:29;;;;;;;;;;;;;;;0.51;100.00;97509.63;10598956;27;1914;-69
2023/12/18 02:15:36;;;;;;;;;;;;;;;0.55;100.00;97507.47;10579801;27;2028;-70
2023/12/18 02:20:48;;;;;;;;;;;;;;;0.51;100.00;97495.56;10600063;27;1890;-69
2023/12/18 02:25:54;;;;;;;;;;;;;;;0.60;100.00;97497.19;10576732;27;1932;-71
2023/12/18 02:31:01;;;;;;;;;;;;;;;0.52;100.00;97490.09;10577724;27;2003;-69
2023/12/18 02:36:30;;;;;;;;;;;;;;;0.52;100.00;97490.09;10612885;27;1908;-68
2023/12/18 02:41:42;;;;;;;;;;;;;;;0.59;100.00;97487.63;10579093;27;1928;-70
2023/12/18 02:46:48;;;;;;;;;;;;;;;0.59;100.00;97479.66;10595370;27;3039;-68
2023/12/18 02:51:55;;;;;;;;;;;;;;;0.52;100.00;97473.41;10599248;27;2071;-70
2023/12/18 02:57:09;;;;;;;;;;;;;;;0.48;100.00;97475.56;10589622;27;2061;-68
2023/12/18 03:02:17;;;;;;;;;;;;;;;0.48;100.00;97470.25;10582808;27;1970;-70
2023/12/18 03:07:37;;;;;;;;;;;;;;;0.48;100.00;97472.91;10593532;27;2127;-69
2023/12/18 03:12:41;;;;;;;;;;;;;;;0.47;100.00;97471.25;10606115;27;2099;-70
2023/12/18 03:17:54;;;;;;;;;;;;;;;0.46;100.00;97463.50;10582100;27;2104;-71
2023/12/18 03:23:07;;;;;;;;;;;;;;;0.46;100.00;97466.97;10611465;27;2071;-71
2023/12/18 03:28:18;;;;;;;;;;;;;;;0.39;100.00;97468.63;10586433;27;2083;-70
2023/12/18 03:33:20;;;;;;;;;;;;;;;0.39;100.00;97460.69;10587040;27;2268;-69
2023/12/18 03:38:25;;;;;;;;;;;;;;;0.50;100.00;97455.03;10604586;27;2248;-72
2023/12/18 03:43:29;;;;;;;;;;;;;;;0.68;100.00;97451.34;10592491;27;2047;-70
2023/12/18 03:48:34;;;;;;;;;;;;;;;0.69;100.00;97453.00;10585276;27;3295;-69
2023/12/18 03:53:44;;;;;;;;;;;;;;;0.63;100.00;97459.78;10610806;27;1905;-68
2023/12/18 03:58:50;;;;;;;;;;;;;;;0.67;100.00;97452.34;10600688;27;2133;-69
2023/12/18 04:03:59;;;;;;;;;;;;;;;0.64;100.00;97450.06;10586502;27;1926;-69
2023/12/18 04:09:09;;;;;;;;;;;;;;;0.58;100.00;97446.28;10588077;27;1890;-70
2023/12/18 04:14:13;;;;;;;;;;;;;;;0.66;100.00;97445.41;10597880;27;2103;-70
2023/12/18 04:19:24;;;;;;;;;;;;;;;0.61;100.00;97447.75;10598435;27;2134;-72
2023/12/18 04:24:28;;;;;;;;;;;;;;;0.58;100.00;97450.75;10595948;27;1980;-68
2023/12/18 04:29:33;;;;;;;;;;;;;;;0.57;100.00;97444.59;10593890;27;1941;-69
2023/12/18 04:34:37;;;;;;;;;;;;;;;0.57;100.00;97434.00;10597379;27;1913;-69
2023/12/18 04:39:46;;;;;;;;;;;;;;;0.58;100.00;97435.69;10599143;27;1972;-69
2023/12/18 04:44:50;;;;;;;;;;;;;;;0.56;100.00;97440.31;10582220;27;6020;-76
2023/12/18 04:50:12;;;;;;;;;;;;;;;0.59;100.00;97441.81;10594994;27;3140;-76
2023/12/18 04:55:21;;;;;;;;;;;;;;;0.66;100.00;97421.59;10583915;27;2079;-71
2023/12/18 05:00:24;;;;;;;;;;;;;;;0.72;100.00;97431.50;10590113;27;2071;-69
2023/12/18 05:05:28;;;;;;;;;;;;;;;0.69;100.00;97434.47;10582774;27;1895;-71
2023/12/18 05:10:35;;;;;;;;;;;;;;;0.70;100.00;97429.03;10604656;27;1988;-69
2023/12/18 05:15:51;;;;;;;;;;;;;;;0.71;100.00;97432.50;10609647;27;1992;-69
2023/12/18 05:21:03;;;;;;;;;;;;;;;0.63;100.00;97438.63;10580972;27;1978;-70
2023/12/18 05:26:10;;;;;;;;;;;;;;;0.67;100.00;97433.81;10563660;27;1888;-68
2023/12/18 05:31:29;;;;;;;;;;;;;;;0.59;100.00;97432.03;10602192;27;2076;-70
2023/12/18 05:36:36;;;;;;;;;;;;;;;0.56;100.00;97428.91;10577550;27;2020;-74
2023/12/18 05:41:39;;;;;;;;;;;;;;;0.53;100.00;97432.72;10589294;27;5023;-70
2023/12/18 05:46:42;;;;;;;;;;;;;;;0.54;100.00;97424.59;10619420;27;3217;-70
2023/12/18 05:51:48;;;;;;;;;;;;;;;0.50;100.00;97436.50;10596846;27;1818;-70
2023/12/18 05:57:05;;;;;;;;;;;;;;;0.50;100.00;97428.56;10598481;27;1981;-73
2023/12/18 06:02:10;;;;;;;;;;;;;;;0.50;100.00;97428.56;10580979;27;1871;-73
2023/12/18 06:07:14;;;;;;;;;;;;;;;0.47;100.00;97428.94;10595558;27;2017;-68
2023/12/18 06:12:25;;;;;;;;;;;;;;;0.49;100.00;97437.50;10582119;27;2083;-70
2023/12/18 06:17:28;;;;;;;;;;;;;;;0.51;100.00;97430.25;10578167;27;2098;-67
2023/12/18 06:22:34;;;;;;;;;;;;;;;0.57;100.00;97433.19;10584001;27;1922;-70
2023/12/18 06:27:37;;;;;;;;;;;;;;;0.60;100.00;97427.56;10587970;27;2350;-71
2023/12/18 06:32:42;;;;;;;;;;;;;;;0.63;100.00;97427.22;10598543;27;1889;-69
2023/12/18 06:37:47;;;;;;;;;;;;;;;0.67;100.00;97423.25;10572656;27;1905;-75
2023/12/18 06:42:56;;;;;;;;;;;;;;;0.67;100.00;97423.25;10620785;27;5030;-71
2023/12/18 06:48:03;;;;;;;;;;;;;;;0.73;100.00;97417.25;10608876;27;2017;-69
2023/12/18 06:53:13;;;;;;;;;;;;;;;0.74;100.00;97425.03;10600156;27;2012;-67
2023/12/18 06:58:25;;;;;;;;;;;;;;;0.84;100.00;97424.84;10583570;27;1975;-69
2023/12/18 07:03:32;;;;;;;;;;;;;;;0.91;100.00;97425.78;10574147;27;2083;-68
2023/12/18 07:14:06;;;;;;;;;;;;;;;0.93;100.00;97428.25;10614495;27;1963;-67
2023/12/18 07:19:19;;;;;;;;;;;;;;;0.98;100.00;97432.06;10605540;27;2392;-71
2023/12/18 07:24:33;;;;;;;;;;;;;;;1.10;100.00;97424.53;10608888;27;2441;-67
2023/12/18 07:29:40;;;;;;;;;;;;;;;1.23;100.00;97434.56;10588943;27;2049;-71
2023/12/18 07:34:48;;;;;;;;;;;;;;;1.31;100.00;97426.56;10584149;27;1979;-70
2023/12/18 07:39:52;;;;;;;;;;;;;;;1.48;100.00;97429.97;10583889;27;1898;-70
2023/12/18 07:45:09;;;;;;;;;;;;;;;1.59;100.00;97427.72;10603474;27;6136;-70
2023/12/18 07:50:21;;;;;;;;;;;;;;;1.71;100.00;97429.94;10604632;27;3217;-73
2023/12/18 07:55:30;;;;;;;;;;;;;;;1.79;100.00;97436.03;10606581;27;2006;-69
2023/12/18 08:00:33;;;;;;;;;;;;;;;1.80;100.00;97427.06;10606362;27;1887;-67
2023/12/18 08:05:44;;;;;;;;;;;;;;;1.88;100.00;97429.66;10602979;27;2047;-69
2023/12/18 08:10:54;;;;;;;;;;;;;;;2.00;100.00;97438.00;10600306;27;2408;-69
2023/12/18 08:16:09;;;;;;;;;;;;;;;2.14;100.00;97428.44;10587810;27;1909;-68
2023/12/18 08:21:17;;;;;;;;;;;;;;;2.30;100.00;97422.16;10602485;27;2023;-71
2023/12/18 08:26:22;;;;;;;;;;;;;;;2.43;100.00;97415.22;10611766;27;1922;-69
2023/12/18 08:31:26;;;;;;;;;;;;;;;2.50;100.00;97412.66;10602459;27;2039;-69
2023/12/18 08:36:34;;;;;;;;;;;;;;;2.63;100.00;97410.19;10597915;27;1928;-70
2023/12/18 08:41:46;;;;;;;;;;;;;;;2.83;100.00;97412.28;10594444;27;5205;-69
2023/12/18 08:46:53;;;;;;;;;;;;;;;3.01;100.00;97412.72;10586640;27;3161;-69
2023/12/18 08:52:00;;;;;;;;;;;;;;;3.15;100.00;97416.34;10601230;27;1984;-68
2023/12/18 08:57:08;;;;;;;;;;;;;;;3.40;100.00;97419.50;10581345;27;1946;-70
2023/12/18 09:02:21;;;;;;;;;;;;;;;3.54;100.00;97415.97;10598204;27;1820;-68
2023/12/18 09:07:27;;;;;;;;;;;;;;;3.72;100.00;97416.34;10600384;27;1926;-70
2023/12/18 09:12:37;;;;;;;;;;;;;;;3.98;100.00;97418.44;10597518;27;2106;-70
2023/12/18 09:17:45;;;;;;;;;;;;;;;4.13;100.00;97410.34;10586446;27;2101;-73
2023/12/18 09:22:51;;;;;;;;;;;;;;;4.18;100.00;97412.44;10593406;27;2126;-70
2023/12/18 09:27:58;;;;;;;;;;;;;;;4.21;100.00;97418.22;10615952;27;1870;-73
2023/12/18 09:33:13;;;;;;;;;;;;;;;4.26;100.00;97406.97;10568881;27;1924;-71
2023/12/18 09:38:20;;;;;;;;;;;;;;;4.28;100.00;97408.44;10580671;27;1983;-70
2023/12/18 09:43:29;;;;;;;;;;;;;;;4.26;100.00;97405.16;10599280;27;5037;-70
2023/12/18 09:48:48;;;;;;;;;;;;;;;4.36;100.00;97401.31;10588266;27;1927;-70
2023/12/18 09:53:53;;;;;;;;;;;;;;;4.46;100.00;97399.16;10584219;27;1889;-72
2023/12/18 09:59:02;;;;;;;;;;;;;;;4.67;100.00;97396.41;10600923;27;2088;-69
2023/12/18 10:04:10;;;;;;;;;;;;;;;4.83;100.00;97388.06;10579120;27;2103;-74
2023/12/18 10:09:14;;;;;;;;;;;;;;;5.10;100.00;97390.88;10600367;27;1923;-70
2023/12/18 10:14:19;;;;;;;;;;;;;;;5.47;100.00;97386.03;10579025;27;1994;-70
2023/12/18 10:19:27;;;;;;;;;;;;;;;5.64;100.00;97387.31;10582701;27;1968;-75
2023/12/18 10:24:34;;;;;;;;;;;;;;;5.71;100.00;97382.81;10606661;27;1917;-70
2023/12/18 10:29:40;;;;;;;;;;;;;;;5.90;100.00;97370.50;10589356;27;1973;-69
2023/12/18 10:34:49;;;;;;;;;;;;;;;6.01;100.00;97364.59;10590294;27;1898;-70
2023/12/18 10:45:13;;;;;;;;;;;;;;;6.25;100.00;97357.00;10599446;27;2107;-71
2023/12/18 10:50:19;;;;;;;;;;;;;;;6.27;100.00;97361.09;10573101;27;1877;-71
2023/12/18 10:55:30;;;;;;;;;;;;;;;6.37;100.00;97348.13;10606996;27;2043;-70
2023/12/18 11:01:03;;;;;;;;;;;;;;;6.34;100.00;97347.72;10602360;27;2078;-70
2023/12/18 11:06:19;;;;;;;;;;;;;;;6.39;100.00;97338.06;10604526;27;2039;-72
2023/12/18 11:11:30;;;;;;;;;;;;;;;6.43;100.00;97323.25;10604603;27;2012;-68
2023/12/18 11:16:33;;;;;;;;;;;;;;;6.40;100.00;97318.31;10582893;27;1990;-69
2023/12/18 11:21:36;;;;;;;;;;;;;;;6.42;100.00;97313.59;10598336;27;1881;-69
2023/12/18 11:26:46;;;;;;;;;;;;;;;6.39;100.00;97306.00;10599623;27;1877;-70
2023/12/18 11:32:03;;;;;;;;;;;;;;;6.41;100.00;97295.91;10594648;27;1867;-69
2023/12/18 11:37:21;;;;;;;;;;;;;;;6.53;100.00;97284.59;10604631;27;2000;-70
2023/12/18 11:42:41;;;;;;;;;;;;;;;6.86;100.00;97279.94;10604109;27;5006;-75
2023/12/18 11:53:09;;;;;;;;;;;;;;;7.05;100.00;97246.91;10602010;27;1940;-68
2023/12/18 11:58:15;;;;;;;;;;;;;;;7.17;100.00;97241.69;10584683;27;1918;-69
2023/12/18 12:03:19;;;;;;;;;;;;;;;7.36;100.00;97237.25;10607930;27;1959;-68
2023/12/18 12:08:30;;;;;;;;;;;;;;;7.47;100.00;97228.53;10593146;27;2347;-72
2023/12/18 12:13:39;;;;;;;;;;;;;;;7.53;100.00;97229.50;10604911;27;1864;-70
2023/12/18 12:18:45;;;;;;;;;;;;;;;7.70;100.00;97221.72;10589701;27;1913;-72
2023/12/18 12:23:50;;;;;;;;;;;;;;;7.86;100.00;97216.66;10612683;27;1883;-71
2023/12/18 12:28:56;;;;;;;;;;;;;;;8.13;100.00;97211.81;10599004;27;1897;-71
2023/12/18 12:34:04;;;;;;;;;;;;;;;8.25;100.00;97209.22;10587949;27;2051;-70
2023/12/18 12:39:10;;;;;;;;;;;;;;;8.36;100.00;97211.19;10588811;27;1996;-73
2023/12/18 12:44:21;;;;;;;;;;;;;;;8.55;100.00;97197.78;10607104;27;5086;-71
2023/12/18 12:49:28;;;;;;;;;;;;;;;8.82;100.00;97199.06;10599000;27;1917;-69
2023/12/18 12:54:31;;;;;;;;;;;;;;;8.85;100.00;97187.91;10603118;27;1849;-72
2023/12/18 12:59:39;;;;;;;;;;;;;;;8.96;100.00;97188.97;10592156;27;1917;-70
2023/12/18 13:04:48;;;;;;;;;;;;;;;8.90;100.00;97192.56;10595390;27;2994;-72
2023/12/18 13:09:53;;;;;;;;;;;;;;;8.84;100.00;97183.59;10599177;27;2071;-74
2023/12/18 13:15:00;;;;;;;;;;;;;;;9.08;100.00;97184.44;10583951;27;2126;-73
2023/12/18 13:20:07;;;;;;;;;;;;;;;9.04;100.00;97185.16;10598682;27;2068;-74
2023/12/18 13:25:30;;;;;;;;;;;;;;;9.28;100.00;97173.41;10596170;27;1523;-70
2023/12/18 13:30:38;;;;;;;;;;;;;;;9.23;100.00;97177.84;10594971;27;1973;-69
2023/12/18 13:35:41;;;;;;;;;;;;;;;9.20;100.00;97174.56;10581022;27;2051;-69
2023/12/18 13:40:46;;;;;;;;;;;;;;;8.97;100.00;97169.16;10582345;27;5022;-69
2023/12/18 13:45:55;;;;;;;;;;;;;;;9.12;100.00;97166.88;10609289;27;1838;-74
2023/12/18 13:51:01;;;;;;;;;;;;;;;9.08;100.00;97160.31;10603216;27;1839;-73
2023/12/18 13:56:07;;;;;;;;;;;;;;;9.24;99.96;97166.06;10599645;27;1910;-75
2023/12/18 14:01:26;;;;;;;;;;;;;;;9.11;96.95;97162.53;10598631;27;2968;-74
2023/12/18 14:06:31;;;;;;;;;;;;;;;8.86;100.00;97157.34;10601681;27;1968;-71
2023/12/18 14:11:37;;;;;;;;;;;;;;;9.04;100.00;97159.16;10564458;27;1895;-70
2023/12/18 14:16:55;;;;;;;;;;;;;;;8.77;100.00;97160.56;10582507;27;2112;-68
2023/12/18 14:22:02;;;;;;;;;;;;;;;8.82;100.00;97148.13;10612486;27;2082;-69
2023/12/18 14:27:07;;;;;;;;;;;;;;;8.68;100.00;97146.69;10607344;27;1820;-69
2023/12/18 14:32:11;;;;;;;;;;;;;;;8.43;100.00;97138.78;10598528;27;1885;-68
2023/12/18 14:37:20;;;;;;;;;;;;;;;8.41;100.00;97153.44;10595093;27;1917;-71
2023/12/18 14:42:27;;;;;;;;;;;;;;;8.39;100.00;97157.16;10591167;27;5196;-68
2023/12/18 14:53:25;;;;;;;;;;;;;;;8.20;100.00;97154.69;10596001;27;1905;-73
2023/12/18 14:58:33;;;;;;;;;;;;;;;7.98;100.00;97163.19;10585517;27;1918;-68
2023/12/18 15:03:36;;;;;;;;;;;;;;;7.95;100.00;97155.63;10602148;27;1886;-68
2023/12/18 15:08:45;;;;;;;;;;;;;;;7.84;100.00;97151.00;10592567;27;1861;-72
2023/12/18 15:13:54;;;;;;;;;;;;;;;7.63;100.00;97151.41;10613890;27;1867;-73
2023/12/18 15:18:57;;;;;;;;;;;;;;;7.55;100.00;97144.47;10588098;27;1996;-69
2023/12/18 15:24:01;;;;;;;;;;;;;;;7.41;100.00;97143.78;10577779;27;2741;-71
2023/12/18 15:29:12;;;;;;;;;;;;;;;7.04;100.00;97143.69;10590616;27;1891;-69
2023/12/18 15:34:17;;;;;;;;;;;;;;;6.69;100.00;97140.66;10587509;27;2004;-69
2023/12/18 15:39:28;;;;;;;;;;;;;;;6.46;100.00;97141.19;10597053;27;2001;-71
2023/12/18 15:44:31;;;;;;;;;;;;;;;6.12;100.00;97139.72;10608736;27;4855;-69
2023/12/18 15:49:39;;;;;;;;;;;;;;;6.03;100.00;97140.16;10584022;27;1847;-69
2023/12/18 15:54:47;;;;;;;;;;;;;;;5.93;100.00;97138.75;10607035;27;1830;-69
2023/12/18 15:59:55;;;;;;;;;;;;;;;5.83;100.00;97135.66;10589029;27;1969;-69
2023/12/18 16:05:16;;;;;;;;;;;;;;;5.68;100.00;97137.78;10586237;27;1979;-67
2023/12/18 16:10:26;;;;;;;;;;;;;;;5.47;100.00;97135.34;10601935;27;1980;-68
2023/12/18 16:15:33;;;;;;;;;;;;;;;5.32;100.00;97144.41;10607857;27;2219;-69
2023/12/18 16:20:42;;;;;;;;;;;;;;;5.29;100.00;97144.00;10597320;27;2107;-68
2023/12/18 16:25:54;;;;;;;;;;;;;;;5.17;100.00;97138.47;10601174;27;2099;-70
2023/12/18 16:30:59;;;;;;;;;;;;;;;5.05;100.00;97129.44;10602888;27;2039;-71
2023/12/18 16:36:03;;;;;;;;;;;;;;;4.95;100.00;97129.84;10596535;27;1976;-70
2023/12/18 16:41:20;;;;;;;;;;;;;;;4.92;100.00;97126.78;10602582;27;2038;-69
2023/12/18 16:46:27;;;;;;;;;;;;;;;4.87;100.00;97130.06;10596418;27;2822;-71
2023/12/18 16:51:47;;;;;;;;;;;;;;;4.72;100.00;97130.25;10602316;27;2063;-69
2023/12/18 16:56:53;;;;;;;;;;;;;;;4.65;100.00;97131.28;10600761;27;1910;-69
2023/12/18 17:01:59;;;;;;;;;;;;;;;4.55;100.00;97136.97;10605425;27;1979;-71
2023/12/18 17:07:09;;;;;;;;;;;;;;;4.44;100.00;97129.56;10602056;27;1920;-68
2023/12/18 17:12:12;;;;;;;;;;;;;;;4.41;100.00;97127.34;10600101;27;2067;-71
2023/12/18 17:17:16;;;;;;;;;;;;;;;4.27;100.00;97129.97;10598380;27;2121;-73
2023/12/18 17:22:25;;;;;;;;;;;;;;;4.17;100.00;97121.53;10601082;27;2019;-69
2023/12/18 17:27:30;;;;;;;;;;;;;;;4.17;100.00;97118.88;10588224;27;2035;-71
2023/12/18 17:32:40;;;;;;;;;;;;;;;4.16;100.00;97116.41;10595303;27;2110;-71
2023/12/18 17:37:54;;;;;;;;;;;;;;;4.14;100.00;97105.97;10599723;27;1914;-69
2023/12/18 17:42:58;;;;;;;;;;;;;;;3.98;100.00;97101.00;10613484;27;5057;-70
2023/12/18 17:48:03;;;;;;;;;;;;;;;3.93;100.00;97112.22;10600273;27;3364;-73
2023/12/18 17:53:07;;;;;;;;;;;;;;;3.94;100.00;97097.91;10575634;27;1632;-69
2023/12/18 17:58:15;;;;;;;;;;;;;;;3.90;100.00;97093.19;10600695;27;1874;-68
2023/12/18 18:03:23;;;;;;;;;;;;;;;3.73;100.00;97090.88;10604075;27;1482;-70
2023/12/18 18:08:32;;;;;;;;;;;;;;;3.69;100.00;97094.97;10605917;27;1481;-76
2023/12/18 18:13:35;;;;;;;;;;;;;;;3.68;100.00;97087.97;10599679;27;1379;-70
2023/12/18 18:18:45;;;;;;;;;;;;;;;3.68;100.00;97093.28;10596996;27;1905;-72
2023/12/18 18:23:51;;;;;;;;;;;;;;;3.67;100.00;97086.34;10596244;27;1541;-75
2023/12/18 18:28:55;;;;;;;;;;;;;;;3.58;100.00;97082.22;10599153;27;2739;-72
2023/12/18 18:34:04;;;;;;;;;;;;;;;3.57;100.00;97085.91;10576903;27;1708;-75
2023/12/18 18:39:13;;;;;;;;;;;;;;;3.51;100.00;97086.69;10586534;27;1976;-70
2023/12/18 18:44:24;;;;;;;;;;;;;;;3.42;100.00;97077.22;10605398;27;1511;-71
2023/12/18 18:49:37;;;;;;;;;;;;;;;3.33;100.00;97083.72;10597815;27;3221;-72
2023/12/18 18:54:48;;;;;;;;;;;;;;;3.32;100.00;97076.78;10601308;27;1874;-69
2023/12/18 19:00:05;;;;;;;;;;;;;;;3.30;100.00;97074.28;10607909;27;1918;-69
2023/12/18 19:05:10;;;;;;;;;;;;;;;3.28;100.00;97075.50;10603994;27;1474;-70
2023/12/18 19:10:20;;;;;;;;;;;;;;;3.26;100.00;97078.38;10592601;27;1513;-69
2023/12/18 19:15:23;;;;;;;;;;;;;;;3.24;100.00;97078.56;10606674;27;1367;-70
2023/12/18 19:25:52;;;;;;;;;;;;;;;3.06;100.00;97062.31;10603062;27;1491;-69
2023/12/18 19:31:07;;;;;;;;;;;;;;;2.99;100.00;97058.78;10610231;27;1475;-68
2023/12/18 19:36:14;;;;;;;;;;;;;;;2.91;100.00;97059.72;10607938;27;1563;-68
2023/12/18 19:41:26;;;;;;;;;;;;;;;2.81;100.00;97048.66;10597426;27;5209;-70
2023/12/18 19:46:34;;;;;;;;;;;;;;;2.73;100.00;97051.44;10594319;27;3254;-70
2023/12/18 19:51:42;;;;;;;;;;;;;;;2.61;100.00;97037.88;10598828;27;1565;-67
2023/12/18 19:56:57;;;;;;;;;;;;;;;2.52;100.00;97040.84;10602343;27;1983;-67
2023/12/18 20:07:36;;;;;;;;;;;;;;;2.41;100.00;97042.19;10602934;27;1754;-71
2023/12/18 20:12:42;;;;;;;;;;;;;;;2.43;100.00;97038.34;10606733;27;1758;-71
2023/12/18 20:17:47;;;;;;;;;;;;;;;2.44;100.00;97036.50;10604219;27;1992;-73
2023/12/18 20:22:52;;;;;;;;;;;;;;;2.32;100.00;97035.38;10603090;27;2322;-73
2023/12/18 20:27:58;;;;;;;;;;;;;;;2.28;100.00;97020.84;10605308;27;1902;-72
2023/12/18 20:33:05;;;;;;;;;;;;;;;2.22;100.00;97026.91;10597014;27;2051;-71
2023/12/18 20:38:24;;;;;;;;;;;;;;;2.19;100.00;97019.34;10615166;27;1969;-74
2023/12/18 20:43:31;;;;;;;;;;;;;;;2.10;100.00;97008.88;10606056;27;4986;-74
2023/12/18 20:48:37;;;;;;;;;;;;;;;2.08;100.00;97010.88;10607636;27;3034;-74
2023/12/18 20:53:43;;;;;;;;;;;;;;;2.02;100.00;97014.28;10599345;27;2118;-76
2023/12/18 20:58:52;;;;;;;;;;;;;;;1.99;100.00;97012.03;10596861;27;2043;-71
2023/12/18 21:03:59;;;;;;;;;;;;;;;1.96;100.00;97007.09;10593239;27;1889;-71
2023/12/18 21:09:08;;;;;;;;;;;;;;;1.91;100.00;97009.50;10594997;27;2008;-70
2023/12/18 21:14:18;;;;;;;;;;;;;;;1.86;100.00;97003.94;10596867;27;1898;-70
2023/12/18 21:25:04;;;;;;;;;;;;;;;1.82;100.00;96989.41;10604358;27;2520;-75
2023/12/18 21:30:16;;;;;;;;;;;;;;;1.79;100.00;96982.66;10592090;27;2373;-74
2023/12/18 21:35:21;;;;;;;;;;;;;;;1.78;100.00;96988.13;10605854;27;2377;-73
2023/12/18 21:40:29;;;;;;;;;;;;;;;1.86;100.00;96972.94;10580292;27;2030;-72
2023/12/18 21:45:33;;;;;;;;;;;;;;;1.81;100.00;96971.84;10584239;27;5282;-73
2023/12/18 21:50:39;;;;;;;;;;;;;;;1.90;100.00;96960.91;10598139;27;3157;-69
2023/12/18 22:01:01;;;;;;;;;;;;;;;1.95;100.00;96957.72;10600697;27;2095;-71
2023/12/18 22:06:13;;;;;;;;;;;;;;;1.95;100.00;96949.75;10590267;27;1969;-69
2023/12/18 22:11:18;;;;;;;;;;;;;;;2.01;100.00;96940.22;10604057;27;2125;-69
2023/12/18 22:16:24;;;;;;;;;;;;;;;1.97;100.00;96944.25;10595470;27;1951;-69
2023/12/18 22:21:31;;;;;;;;;;;;;;;1.93;100.00;96932.41;10621641;27;2357;-71
2023/12/18 22:26:44;;;;;;;;;;;;;;;1.92;100.00;96939.53;10594376;27;2055;-68
2023/12/18 22:31:50;;;;;;;;;;;;;;;1.87;100.00;96949.88;10580234;27;2233;-71
2023/12/18 22:36:56;;;;;;;;;;;;;;;1.89;100.00;96942.56;10603375;27;2071;-70
2023/12/18 22:41:59;;;;;;;;;;;;;;;1.81;100.00;96964.72;10601147;27;5046;-70
2023/12/18 22:47:04;;;;;;;;;;;;;;;1.83;100.00;96968.00;10590040;27;3281;-70
2023/12/18 22:52:07;;;;;;;;;;;;;;;1.87;100.00;96979.06;10587143;27;2079;-70
2023/12/18 22:57:16;;;;;;;;;;;;;;;1.84;100.00;96974.13;10587206;27;1942;-71
2023/12/18 23:02:22;;;;;;;;;;;;;;;1.89;100.00;96971.72;10601845;27;1941;-72
2023/12/18 23:07:25;;;;;;;;;;;;;;;1.83;100.00;96959.22;10606269;27;1963;-72
2023/12/18 23:12:28;;;;;;;;;;;;;;;1.76;100.00;96958.34;10589353;27;2178;-72
2023/12/18 23:17:37;;;;;;;;;;;;;;;1.60;100.00;96954.94;10612292;27;2066;-73
2023/12/18 23:22:41;;;;;;;;;;;;;;;1.55;100.00;96936.13;10601130;27;1937;-72
2023/12/18 23:27:49;;;;;;;;;;;;;;;1.51;100.00;96932.19;10607194;27;1934;-70
2023/12/18 23:32:57;;;;;;;;;;;;;;;1.43;100.00;96928.84;10592081;27;2090;-67
2023/12/18 23:38:02;;;;;;;;;;;;;;;1.38;100.00;96933.91;10597485;27;2442;-71
2023/12/18 23:43:07;;;;;;;;;;;;;;;1.27;100.00;96930.75;10589985;27;5173;-69
2023/12/18 23:48:11;;;;;;;;;;;;;;;1.15;100.00;96915.53;10585387;27;2946;-74
2023/12/18 23:53:22;;;;;;;;;;;;;;;1.07;100.00;96911.94;10601722;27;1885;-67
2023/12/18 23:58:28;;;;;;;;;;;;;;;1.03;100.00;96900.09;10590014;27;1988;-68
